createdAt,value
2018-11-06T00:01:32.183Z,99824.12
2018-11-06T00:04:04.963Z,99813.59
2018-11-06T00:06:34.542Z,99815.41
2018-11-06T00:09:04.889Z,99821.75
2018-11-06T00:11:34.418Z,99821.53
2018-11-06T00:14:03.645Z,99818.48
2018-11-06T00:16:33.306Z,99820.48
2018-11-06T00:19:02.737Z,99812.97
2018-11-06T00:21:32.615Z,99817.80
2018-11-06T00:24:02.013Z,99819.61
2018-11-06T00:26:31.754Z,99818.18
2018-11-06T00:29:01.409Z,99813.97
2018-11-06T00:31:31.094Z,99818.83
2018-11-06T00:34:01.050Z,99814.98
2018-11-06T00:36:30.791Z,99816.14
2018-11-06T00:39:00.381Z,99815.03
2018-11-06T00:41:30.680Z,99808.78
2018-11-06T00:44:00.855Z,99813.78
2018-11-06T00:46:30.536Z,99813.98
2018-11-06T00:49:00.382Z,99810.11
2018-11-06T00:51:29.802Z,99801.96
2018-11-06T00:53:59.128Z,99809.55
2018-11-06T00:56:29.008Z,99803.52
2018-11-06T00:58:58.876Z,99804.20
2018-11-06T01:01:28.744Z,99808.12
2018-11-06T01:04:03.598Z,99805.00
2018-11-06T01:06:33.442Z,99799.73
2018-11-06T01:09:03.477Z,99797.38
2018-11-06T01:11:33.515Z,99801.02
2018-11-06T01:14:03.118Z,99796.91
2018-11-06T01:16:32.762Z,99792.16
2018-11-06T01:19:02.477Z,99798.62
2018-11-06T01:21:32.386Z,99796.13
2018-11-06T01:24:01.957Z,99790.05
2018-11-06T01:26:32.240Z,99793.30
2018-11-06T01:29:02.210Z,99798.14
2018-11-06T01:31:31.834Z,99797.00
2018-11-06T01:34:01.471Z,99803.66
2018-11-06T01:36:31.078Z,99802.27
2018-11-06T01:39:00.994Z,99802.72
2018-11-06T01:41:31.315Z,99802.48
2018-11-06T01:44:00.737Z,99798.29
2018-11-06T01:46:30.202Z,99808.08
2018-11-06T01:49:00.323Z,99805.69
2018-11-06T01:51:29.792Z,99803.20
2018-11-06T01:53:59.672Z,99806.97
2018-11-06T01:56:29.825Z,99808.29
2018-11-06T01:58:59.715Z,99801.48
2018-11-06T02:01:29.156Z,99803.83
2018-11-06T02:03:59.125Z,99793.56
2018-11-06T02:06:28.885Z,99803.52
2018-11-06T02:08:59.138Z,99800.03
2018-11-06T02:11:28.743Z,99805.42
2018-11-06T02:13:58.529Z,99806.19
2018-11-06T02:16:28.446Z,99801.48
2018-11-06T02:18:58.419Z,99802.30
2018-11-06T02:21:28.289Z,99802.30
2018-11-06T02:23:58.260Z,99805.50
2018-11-06T02:26:28.179Z,99807.72
2018-11-06T02:28:57.874Z,99805.23
2018-11-06T02:31:27.797Z,99799.00
2018-11-06T02:33:58.016Z,99807.66
2018-11-06T02:36:27.773Z,99796.48
2018-11-06T02:38:57.441Z,99806.31
2018-11-06T02:41:27.511Z,99810.55
2018-11-06T02:43:57.429Z,99812.83
2018-11-06T02:46:27.091Z,99801.16
2018-11-06T02:48:57.090Z,99798.92
2018-11-06T02:51:26.874Z,99805.75
2018-11-06T02:53:56.697Z,99801.23
2018-11-06T02:56:26.492Z,99804.05
2018-11-06T02:58:56.301Z,99803.09
2018-11-06T03:01:26.302Z,99799.25
2018-11-06T03:03:56.214Z,99797.05
2018-11-06T03:06:26.126Z,99795.16
2018-11-06T03:08:56.133Z,99794.66
2018-11-06T03:11:25.813Z,99792.20
2018-11-06T03:13:55.640Z,99794.26
2018-11-06T03:16:25.591Z,99791.08
2018-11-06T03:18:55.561Z,99785.55
2018-11-06T03:21:25.451Z,99787.86
2018-11-06T03:23:55.023Z,99782.37
2018-11-06T03:26:24.402Z,99786.84
2018-11-06T03:28:54.065Z,99786.43
2018-11-06T03:31:24.006Z,99786.94
2018-11-06T03:33:54.064Z,99785.35
2018-11-06T03:36:24.069Z,99781.84
2018-11-06T03:38:53.924Z,99779.34
2018-11-06T03:41:23.632Z,99787.02
2018-11-06T03:43:53.633Z,99779.30
2018-11-06T03:46:23.431Z,99779.56
2018-11-06T03:48:53.372Z,99783.30
2018-11-06T03:51:23.110Z,99784.83
2018-11-06T03:53:52.774Z,99785.41
2018-11-06T03:56:22.591Z,99785.86
2018-11-06T03:58:52.278Z,99792.50
2018-11-06T04:01:22.277Z,99788.84
2018-11-06T04:03:52.489Z,99791.80
2018-11-06T04:06:22.413Z,99794.33
2018-11-06T04:08:52.582Z,99798.15
2018-11-06T04:11:22.366Z,99796.11
2018-11-06T04:13:51.878Z,99798.79
2018-11-06T04:16:21.709Z,99799.17
2018-11-06T04:18:51.881Z,99806.48
2018-11-06T04:21:27.490Z,99806.29
2018-11-06T04:23:57.287Z,99799.67
2018-11-06T04:26:27.160Z,99798.77
2018-11-06T04:28:57.051Z,99801.77
2018-11-06T04:31:26.846Z,99805.09
2018-11-06T04:33:56.506Z,99799.80
2018-11-06T04:36:26.402Z,99803.95
2018-11-06T04:38:56.081Z,99808.53
2018-11-06T04:41:26.287Z,99806.59
2018-11-06T04:43:56.010Z,99804.22
2018-11-06T04:46:25.870Z,99804.72
2018-11-06T04:48:55.777Z,99798.75
2018-11-06T04:51:26.068Z,99800.45
2018-11-06T04:53:58.893Z,99804.98
2018-11-06T04:56:29.555Z,99800.95
2018-11-06T04:58:58.971Z,99790.71
2018-11-06T05:01:28.638Z,99796.69
2018-11-06T05:03:58.890Z,99792.61
2018-11-06T05:06:28.666Z,99793.25
2018-11-06T05:08:58.442Z,99803.27
2018-11-06T05:11:28.489Z,99797.77
2018-11-06T05:13:58.078Z,99802.94
2018-11-06T05:16:27.868Z,99813.80
2018-11-06T05:18:57.625Z,99813.39
2018-11-06T05:21:27.234Z,99814.47
2018-11-06T05:23:56.849Z,99816.50
2018-11-06T05:26:26.766Z,99826.21
2018-11-06T05:28:56.686Z,99831.93
2018-11-06T05:31:26.303Z,99832.45
2018-11-06T05:33:56.084Z,99837.03
2018-11-06T05:36:25.721Z,99845.98
2018-11-06T05:38:55.681Z,99842.81
2018-11-06T05:41:25.602Z,99845.00
2018-11-06T05:43:55.527Z,99850.69
2018-11-06T05:46:25.345Z,99847.17
2018-11-06T05:48:55.580Z,99862.66
2018-11-06T05:51:25.443Z,99866.31
2018-11-06T05:53:55.787Z,99860.67
2018-11-06T05:56:25.798Z,99867.48
2018-11-06T05:58:55.645Z,99871.96
2018-11-06T06:02:35.225Z,99871.66
2018-11-06T06:05:05.707Z,99874.58
2018-11-06T06:07:36.333Z,99875.36
2018-11-06T06:10:07.076Z,99878.70
2018-11-06T06:12:37.309Z,99886.96
2018-11-06T06:15:07.449Z,99884.14
2018-11-06T06:17:37.469Z,99882.54
2018-11-06T06:20:09.401Z,99884.11
2018-11-06T06:22:39.136Z,99888.94
2018-11-06T06:25:10.928Z,99889.94
2018-11-06T06:27:41.697Z,99889.27
2018-11-06T06:30:15.373Z,99892.57
2018-11-06T06:32:44.776Z,99898.71
2018-11-06T06:35:14.484Z,99893.95
2018-11-06T06:37:44.153Z,99894.63
2018-11-06T06:40:16.128Z,99902.46
2018-11-06T06:42:46.203Z,99900.45
2018-11-06T06:45:17.458Z,99901.16
2018-11-06T06:47:46.601Z,99901.45
2018-11-06T06:50:17.665Z,99907.66
2018-11-06T06:52:47.461Z,99905.25
2018-11-06T06:55:17.338Z,99902.31
2018-11-06T06:57:47.423Z,99903.78
2018-11-06T07:00:17.881Z,99905.72
2018-11-06T07:02:49.163Z,99905.60
2018-11-06T07:05:20.367Z,99907.41
2018-11-06T07:07:49.441Z,99913.86
2018-11-06T07:10:20.144Z,99913.21
2018-11-06T07:12:50.034Z,99913.95
2018-11-06T07:15:22.671Z,99911.88
2018-11-06T07:17:53.726Z,99909.38
2018-11-06T07:20:25.624Z,99908.78
2018-11-06T07:22:54.790Z,99910.53
2018-11-06T07:25:24.099Z,99912.06
2018-11-06T07:27:53.812Z,99910.13
2018-11-06T07:30:23.866Z,99911.66
2018-11-06T07:32:58.048Z,99914.53
2018-11-06T07:35:27.495Z,99912.02
2018-11-06T07:37:56.938Z,99916.73
2018-11-06T07:40:26.443Z,99911.46
2018-11-06T07:42:55.574Z,99914.53
2018-11-06T07:45:24.693Z,99918.81
2018-11-06T07:47:54.293Z,99914.86
2018-11-06T07:50:23.672Z,99916.47
2018-11-06T07:52:52.925Z,99920.17
2018-11-06T07:55:22.502Z,99912.03
2018-11-06T07:57:51.900Z,99918.17
2018-11-06T08:00:24.227Z,99917.84
2018-11-06T08:02:53.539Z,99920.80
2018-11-06T08:05:22.876Z,99916.27
2018-11-06T08:07:53.057Z,99918.82
2018-11-06T08:10:22.073Z,99919.43
2018-11-06T08:12:52.726Z,99917.33
2018-11-06T08:15:22.706Z,99914.44
2018-11-06T08:17:52.173Z,99908.92
2018-11-06T08:20:22.109Z,99915.97
2018-11-06T08:22:52.208Z,99911.96
2018-11-06T08:25:21.986Z,99909.77
2018-11-06T08:27:51.130Z,99909.41
2018-11-06T08:30:21.092Z,99915.08
2018-11-06T08:32:51.091Z,99916.48
2018-11-06T08:35:20.410Z,99910.92
2018-11-06T08:37:50.199Z,99915.64
2018-11-06T08:40:20.314Z,99919.19
2018-11-06T08:42:50.524Z,99893.95
2018-11-06T08:45:19.782Z,99896.92
2018-11-06T08:47:50.663Z,99906.67
2018-11-06T08:50:21.998Z,99913.29
2018-11-06T08:52:51.372Z,99906.90
2018-11-06T08:55:21.802Z,99901.59
2018-11-06T08:57:52.135Z,99903.53
2018-11-06T09:00:23.639Z,99899.63
2018-11-06T09:02:53.456Z,99893.30
2018-11-06T09:05:23.575Z,99896.59
2018-11-06T09:07:52.736Z,99895.89
2018-11-06T09:10:21.935Z,99894.17
2018-11-06T09:12:51.135Z,99897.20
2018-11-06T09:15:20.260Z,99889.20
2018-11-06T09:17:49.323Z,99884.56
2018-11-06T09:20:18.340Z,99888.84
2018-11-06T09:22:48.455Z,99886.91
2018-11-06T09:25:19.082Z,99884.52
2018-11-06T09:27:48.344Z,99881.60
2018-11-06T09:30:18.631Z,99878.52
2018-11-06T09:32:47.848Z,99879.41
2018-11-06T09:35:16.898Z,99880.91
2018-11-06T09:37:46.435Z,99880.00
2018-11-06T09:40:18.283Z,99869.88
2018-11-06T09:42:47.546Z,99865.45
2018-11-06T09:45:16.704Z,99861.25
2018-11-06T09:47:46.306Z,99857.23
2018-11-06T09:50:16.841Z,99863.13
2018-11-06T09:52:46.929Z,99849.52
2018-11-06T09:55:17.257Z,99845.95
2018-11-06T09:57:46.927Z,99839.63
2018-11-06T10:00:17.791Z,99837.70
2018-11-06T10:02:46.818Z,99836.73
2018-11-06T10:05:16.241Z,99825.19
2018-11-06T10:07:45.324Z,99831.85
2018-11-06T10:10:16.297Z,99828.80
2018-11-06T10:12:45.752Z,99824.61
2018-11-06T10:15:18.837Z,99829.34
2018-11-06T10:17:48.874Z,99811.52
2018-11-06T10:20:18.917Z,99817.19
2018-11-06T10:22:48.267Z,99813.70
2018-11-06T10:25:17.434Z,99807.08
2018-11-06T10:27:46.440Z,99807.39
2018-11-06T10:30:19.508Z,99797.15
2018-11-06T10:32:48.717Z,99792.12
2018-11-06T10:35:17.783Z,99788.07
2018-11-06T10:37:47.192Z,99792.88
2018-11-06T10:40:17.804Z,99781.39
2018-11-06T10:42:47.790Z,99779.51
2018-11-06T10:45:18.103Z,99780.70
2018-11-06T10:47:47.971Z,99781.66
2018-11-06T10:50:18.023Z,99772.95
2018-11-06T10:52:48.165Z,99772.25
2018-11-06T10:55:17.544Z,99770.38
2018-11-06T10:57:46.929Z,99770.58
2018-11-06T11:00:21.642Z,99760.95
2018-11-06T11:02:56.752Z,99769.11
2018-11-06T11:05:28.358Z,99767.68
2018-11-06T11:07:58.209Z,99764.09
2018-11-06T11:10:29.226Z,99763.65
2018-11-06T11:13:01.416Z,99766.09
2018-11-06T11:18:24.183Z,99762.70
2018-11-06T11:20:53.468Z,99754.31
2018-11-06T11:23:22.474Z,99757.68
2018-11-06T11:25:52.437Z,99754.47
2018-11-06T11:41:25.218Z,99740.87
2018-11-06T11:43:54.364Z,99695.61
2018-11-06T11:46:23.586Z,99735.54
2018-11-06T11:48:52.558Z,99730.66
2018-11-06T11:51:21.591Z,99734.06
2018-11-06T11:53:50.713Z,99727.38
2018-11-06T11:56:19.708Z,99731.39
2018-11-06T11:58:48.793Z,99727.71
2018-11-06T12:01:17.874Z,99720.72
2018-11-06T12:03:46.906Z,99735.24
2018-11-06T12:06:15.988Z,99725.16
2018-11-06T12:08:45.031Z,99724.80
2018-11-06T12:11:14.068Z,99718.43
2018-11-06T12:13:43.104Z,99719.81
2018-11-06T12:16:12.183Z,99717.17
2018-11-06T12:18:41.244Z,99716.03
2018-11-06T12:21:10.247Z,99713.81
2018-11-06T12:23:39.736Z,99715.89
2018-11-06T12:26:08.697Z,99712.45
2018-11-06T12:28:37.707Z,99709.73
2018-11-06T12:31:06.844Z,99702.46
2018-11-06T12:33:35.854Z,99700.34
2018-11-06T12:36:05.516Z,99697.54
2018-11-06T12:38:34.608Z,99695.52
2018-11-06T12:41:03.672Z,99694.39
2018-11-06T12:43:32.771Z,99696.63
2018-11-06T12:46:02.043Z,99692.05
2018-11-06T12:48:31.067Z,99689.53
2018-11-06T12:51:00.013Z,99691.44
2018-11-06T12:53:29.084Z,99685.70
2018-11-06T12:55:58.179Z,99683.63
2018-11-06T12:58:27.273Z,99686.14
2018-11-06T13:00:56.381Z,99691.14
2018-11-06T13:03:26.080Z,99680.37
2018-11-06T13:05:55.025Z,99682.58
2018-11-06T13:08:24.099Z,99680.03
2018-11-06T13:10:53.293Z,99680.22
2018-11-06T13:13:22.242Z,99677.33
2018-11-06T13:15:51.410Z,99673.86
2018-11-06T13:18:20.341Z,99674.50
2018-11-06T13:20:49.442Z,99678.05
2018-11-06T13:23:18.498Z,99682.29
2018-11-06T13:25:48.422Z,99679.44
2018-11-06T13:28:17.487Z,99674.77
2018-11-06T13:30:46.534Z,99674.47
2018-11-06T13:33:15.580Z,99687.59
2018-11-06T13:35:44.920Z,99678.20
2018-11-06T13:38:14.447Z,99682.48
2018-11-06T13:40:44.427Z,99693.70
2018-11-06T13:43:13.523Z,99691.09
2018-11-06T13:45:42.690Z,99681.31
2018-11-06T13:48:11.820Z,99680.00
2018-11-06T13:50:40.911Z,99682.56
2018-11-06T13:53:10.251Z,99693.50
2018-11-06T13:55:39.264Z,99684.93
2018-11-06T13:58:08.324Z,99685.67
2018-11-06T14:00:37.674Z,99686.58
2018-11-06T14:03:06.709Z,99662.70
2018-11-06T14:05:35.779Z,99687.69
2018-11-06T14:08:05.270Z,99688.92
2018-11-06T14:10:34.353Z,99682.53
2018-11-06T14:13:03.445Z,99682.86
2018-11-06T14:15:32.874Z,99684.22
2018-11-06T14:18:01.920Z,99683.51
2018-11-06T14:20:30.938Z,99690.22
2018-11-06T14:23:00.023Z,99687.55
2018-11-06T14:25:29.118Z,99682.20
2018-11-06T14:27:58.227Z,99689.25
2018-11-06T14:30:27.563Z,99670.95
2018-11-06T14:32:56.541Z,99679.85
2018-11-06T14:35:25.552Z,99678.63
2018-11-06T14:37:54.656Z,99679.73
2018-11-06T14:40:23.781Z,99676.23
2018-11-06T14:42:52.880Z,99679.00
2018-11-06T14:45:21.970Z,99685.86
2018-11-06T14:47:51.447Z,99692.99
2018-11-06T14:50:20.975Z,99690.38
2018-11-06T14:52:50.103Z,99683.98
2018-11-06T14:55:19.850Z,99692.69
2018-11-06T14:57:48.889Z,99696.41
2018-11-06T15:00:19.235Z,99691.52
2018-11-06T15:02:49.452Z,99697.11
2018-11-06T15:05:19.347Z,99694.47
2018-11-06T15:07:48.652Z,99697.14
2018-11-06T15:10:18.110Z,99705.09
2018-11-06T15:12:47.382Z,99698.28
2018-11-06T15:15:17.107Z,99703.59
2018-11-06T15:17:47.095Z,99707.20
2018-11-06T15:20:18.165Z,99693.91
2018-11-06T15:22:47.234Z,99691.86
2018-11-06T15:25:16.994Z,99702.69
2018-11-06T15:27:46.148Z,99706.17
2018-11-06T15:30:16.469Z,99696.92
2018-11-06T15:32:45.779Z,99702.77
2018-11-06T15:35:16.049Z,99704.95
2018-11-06T15:37:45.044Z,99708.00
2018-11-06T15:40:15.831Z,99709.48
2018-11-06T15:42:45.001Z,99706.13
2018-11-06T15:45:15.243Z,99708.22
2018-11-06T15:47:45.057Z,99717.52
2018-11-06T15:50:15.665Z,99711.58
2018-11-06T15:52:45.609Z,99708.22
2018-11-06T15:55:14.650Z,99712.88
2018-11-06T15:57:43.907Z,99712.19
2018-11-06T16:00:17.934Z,99708.83
2018-11-06T16:02:47.241Z,99706.58
2018-11-06T16:05:16.325Z,99709.52
2018-11-06T16:07:45.659Z,99712.72
2018-11-06T16:10:16.685Z,99712.41
2018-11-06T16:12:46.433Z,99712.59
2018-11-06T16:15:15.587Z,99710.58
2018-11-06T16:17:44.740Z,99715.97
2018-11-06T16:20:16.102Z,99706.75
2018-11-06T16:22:45.177Z,99713.06
2018-11-06T16:25:15.772Z,99719.37
2018-11-06T16:27:45.266Z,99717.55
2018-11-06T16:30:15.780Z,99718.87
2018-11-06T16:32:44.915Z,99715.98
2018-11-06T16:35:15.438Z,99714.69
2018-11-06T16:37:44.902Z,99715.92
2018-11-06T16:40:14.597Z,99714.62
2018-11-06T16:42:44.331Z,99724.55
2018-11-06T16:45:16.199Z,99727.20
2018-11-06T16:47:46.199Z,99732.15
2018-11-06T16:50:16.285Z,99732.55
2018-11-06T16:52:45.472Z,99729.63
2018-11-06T16:55:15.246Z,99729.95
2018-11-06T16:57:44.988Z,99726.77
2018-11-06T17:00:17.497Z,99730.98
2018-11-06T17:02:48.193Z,99732.20
2018-11-06T17:05:19.041Z,99737.50
2018-11-06T17:07:48.387Z,99737.58
2018-11-06T17:10:19.295Z,99732.03
2018-11-06T17:12:48.582Z,99733.45
2018-11-06T17:15:24.731Z,99735.39
2018-11-06T17:17:55.687Z,99738.86
2018-11-06T17:20:26.563Z,99744.15
2018-11-06T17:23:07.416Z,99738.08
2018-11-06T17:25:42.575Z,99733.95
2018-11-06T17:28:13.918Z,99740.34
2018-11-06T17:30:45.361Z,99740.73
2018-11-06T17:33:15.686Z,99739.44
2018-11-06T17:35:47.083Z,99744.33
2018-11-06T17:38:16.347Z,99745.05
2018-11-06T17:40:45.578Z,99737.95
2018-11-06T17:43:15.222Z,99749.49
2018-11-06T17:45:44.763Z,99746.78
2018-11-06T17:48:14.676Z,99747.56
2018-11-06T17:50:47.658Z,99751.59
2018-11-06T17:53:17.505Z,99752.64
2018-11-06T17:55:48.692Z,99754.41
2018-11-06T17:58:19.270Z,99760.70
2018-11-06T18:00:48.637Z,99758.73
2018-11-06T18:03:17.834Z,99758.56
2018-11-06T18:05:47.571Z,99759.52
2018-11-06T18:08:17.027Z,99762.54
2018-11-06T18:10:46.273Z,99756.95
2018-11-06T18:13:15.463Z,99759.92
2018-11-06T18:15:44.595Z,99762.32
2018-11-06T18:18:13.640Z,99768.69
2018-11-06T18:20:42.666Z,99766.00
2018-11-06T18:23:11.788Z,99765.03
2018-11-06T18:25:41.073Z,99771.22
2018-11-06T18:28:10.033Z,99777.22
2018-11-06T18:30:39.322Z,99775.81
2018-11-06T18:33:08.480Z,99769.62
2018-11-06T18:35:38.489Z,99774.69
2018-11-06T18:38:08.407Z,99772.23
2018-11-06T18:40:37.471Z,99777.47
2018-11-06T18:43:06.779Z,99782.17
2018-11-06T18:45:36.155Z,99781.78
2018-11-06T18:48:05.560Z,99782.98
2018-11-06T18:50:35.102Z,99784.12
2018-11-06T18:53:04.718Z,99794.58
2018-11-06T18:55:34.261Z,99795.13
2018-11-06T18:58:04.173Z,99792.84
2018-11-06T19:00:33.267Z,99793.55
2018-11-06T19:03:02.382Z,99801.73
2018-11-06T19:05:31.581Z,99800.77
2018-11-06T19:08:01.033Z,99800.27
2018-11-06T19:10:36.010Z,99797.50
2018-11-06T19:13:15.613Z,99803.94
2018-11-06T19:15:45.182Z,99802.87
2018-11-06T19:18:16.026Z,99802.73
2018-11-06T19:20:49.034Z,99802.81
2018-11-06T19:23:20.311Z,99803.78
2018-11-06T19:25:50.535Z,99803.50
2018-11-06T19:28:19.972Z,99805.19
2018-11-06T19:30:49.974Z,99808.50
2018-11-06T19:33:19.932Z,99813.02
2018-11-06T19:35:50.299Z,99811.42
2018-11-06T19:38:20.143Z,99805.62
2018-11-06T19:40:49.623Z,99802.98
2018-11-06T19:43:19.418Z,99806.38
2018-11-06T19:45:49.312Z,99803.80
2018-11-06T19:48:21.022Z,99799.88
2018-11-06T19:50:50.230Z,99802.13
2018-11-06T19:53:19.493Z,99801.20
2018-11-06T19:55:52.282Z,99800.14
2018-11-06T19:58:24.744Z,99803.43
2018-11-06T20:00:55.819Z,99806.05
2018-11-06T20:03:26.380Z,99796.01
2018-11-06T20:05:57.477Z,99802.78
2018-11-06T20:08:28.271Z,99794.09
2018-11-06T20:11:00.545Z,99802.53
2018-11-06T20:13:38.192Z,99810.75
2018-11-06T20:16:09.989Z,99802.64
2018-11-06T20:18:42.970Z,99802.99
2018-11-06T20:21:15.089Z,99800.67
2018-11-06T20:23:46.957Z,99798.80
2018-11-06T20:26:18.274Z,99797.84
2018-11-06T20:28:50.406Z,99795.66
2018-11-06T20:31:38.366Z,99794.47
2018-11-06T20:34:08.717Z,99789.36
2018-11-06T20:36:45.443Z,99794.06
2018-11-06T20:39:16.202Z,99783.78
2018-11-06T20:41:46.659Z,99792.24
2018-11-06T20:44:19.704Z,99791.00
2018-11-06T20:46:53.776Z,99788.84
2018-11-06T20:49:23.909Z,99791.95
2018-11-06T20:51:55.724Z,99793.95
2018-11-06T20:54:25.908Z,99787.87
2018-11-06T20:56:56.716Z,99789.99
2018-11-06T20:59:29.587Z,99787.95
2018-11-06T21:01:59.030Z,99789.19
2018-11-06T21:04:30.189Z,99791.91
2018-11-06T21:07:01.044Z,99793.19
2018-11-06T21:09:36.076Z,99787.30
2018-11-06T21:12:06.167Z,99786.51
2018-11-06T21:14:37.214Z,99760.69
2018-11-06T21:17:10.798Z,99783.90
2018-11-06T21:19:41.299Z,99788.69
2018-11-06T21:22:16.978Z,99785.91
2018-11-06T21:24:47.371Z,99786.47
2018-11-06T21:27:20.441Z,99781.30
2018-11-06T21:29:51.319Z,99782.23
2018-11-06T21:32:21.373Z,99781.53
2018-11-06T21:34:51.498Z,99781.75
2018-11-06T21:37:23.197Z,99781.09
2018-11-06T21:39:54.456Z,99782.66
2018-11-06T21:42:24.415Z,99786.48
2018-11-06T21:44:58.295Z,99785.28
2018-11-06T21:47:29.495Z,99779.59
2018-11-06T21:49:59.083Z,99776.10
2018-11-06T21:52:30.153Z,99783.23
2018-11-06T21:55:03.166Z,99782.78
2018-11-06T21:57:37.443Z,99777.79
2018-11-06T22:00:16.140Z,99778.69
2018-11-06T22:02:51.258Z,99774.81
2018-11-06T22:05:23.814Z,99779.53
2018-11-06T22:07:54.938Z,99780.14
2018-11-06T22:10:28.092Z,99782.48
2018-11-06T22:12:58.804Z,99776.00
2018-11-06T22:15:29.553Z,99773.02
2018-11-06T22:18:04.966Z,99775.95
2018-11-06T22:20:36.082Z,99770.98
2018-11-06T22:23:07.092Z,99768.48
2018-11-06T22:25:37.981Z,99770.91
2018-11-06T22:28:09.386Z,99769.18
2018-11-06T22:30:41.494Z,99765.55
2018-11-06T22:33:11.998Z,99768.80
2018-11-06T22:35:42.593Z,99764.64
2018-11-06T22:38:13.335Z,99771.40
2018-11-06T22:40:42.761Z,99774.73
2018-11-06T22:43:12.739Z,99760.75
2018-11-06T22:45:44.421Z,99760.58
2018-11-06T22:48:15.490Z,99760.58
2018-11-06T22:50:49.611Z,99758.41
2018-11-06T22:53:19.719Z,99756.91
2018-11-06T22:55:49.617Z,99756.57
2018-11-06T22:58:19.481Z,99762.14
2018-11-06T23:00:54.917Z,99759.97
2018-11-06T23:03:24.649Z,99761.97
2018-11-06T23:05:57.204Z,99766.55
2018-11-06T23:08:33.563Z,99764.20
2018-11-06T23:11:03.973Z,99759.08
2018-11-06T23:13:36.550Z,99752.03
2018-11-06T23:16:12.113Z,99758.41
2018-11-06T23:18:42.779Z,99753.69
2018-11-06T23:21:18.491Z,99759.22
2018-11-06T23:23:52.095Z,99754.20
2018-11-06T23:26:22.851Z,99750.33
2018-11-06T23:28:52.983Z,99755.05
2018-11-06T23:31:23.087Z,99746.73
2018-11-06T23:33:53.593Z,99751.52
2018-11-06T23:36:23.326Z,99749.13
2018-11-06T23:38:53.923Z,99752.08
2018-11-06T23:41:26.695Z,99752.08
2018-11-06T23:43:56.925Z,99752.59
2018-11-06T23:46:28.564Z,99749.70
2018-11-06T23:49:01.262Z,99746.62
2018-11-06T23:51:34.329Z,99752.53
2018-11-06T23:54:04.717Z,99743.05
2018-11-06T23:56:36.634Z,99746.41
2018-11-06T23:59:07.038Z,99741.55
